createdAt,value
2022-08-22T07:04:18.587Z,17.85
2022-08-22T07:09:38.689Z,18.01
2022-08-22T07:14:44.408Z,18.16
2022-08-22T07:20:23.930Z,18.32
2022-08-22T07:25:28.310Z,18.50
2022-08-22T07:31:10.587Z,18.62
2022-08-22T07:36:32.238Z,18.66
2022-08-22T07:41:56.437Z,18.77
2022-08-22T07:47:07.022Z,18.94
2022-08-22T07:52:13.932Z,18.98
2022-08-22T07:57:21.431Z,19.00
2022-08-22T08:02:25.976Z,19.06
2022-08-22T08:07:30.421Z,19.12
2022-08-22T08:12:44.799Z,19.18
2022-08-22T08:18:06.070Z,19.20
2022-08-22T08:23:12.093Z,19.23
2022-08-22T08:28:34.019Z,19.31
2022-08-22T08:33:41.052Z,19.41
2022-08-22T08:38:49.651Z,19.42
2022-08-22T08:44:01.912Z,19.65
2022-08-22T08:49:42.154Z,20.24
2022-08-22T08:55:34.264Z,20.76
2022-08-22T09:00:43.197Z,21.18
2022-08-22T09:06:07.708Z,21.36
2022-08-22T09:11:35.188Z,21.41
2022-08-22T09:17:15.389Z,21.60
2022-08-22T09:22:45.796Z,21.72
2022-08-22T09:28:17.517Z,21.79
2022-08-22T09:33:25.020Z,21.95
2022-08-22T09:38:51.971Z,21.97
2022-08-22T09:44:07.471Z,21.86
2022-08-22T09:49:45.110Z,21.62
2022-08-22T09:55:04.384Z,21.33
2022-08-22T10:00:22.471Z,21.08
2022-08-22T10:05:44.043Z,20.88
2022-08-22T10:11:06.839Z,20.91
2022-08-22T10:16:19.917Z,21.11
2022-08-22T10:21:31.197Z,21.37
2022-08-22T10:26:39.533Z,21.68
2022-08-22T10:31:59.438Z,21.64
2022-08-22T10:37:47.306Z,21.49
2022-08-22T10:43:13.485Z,21.54
2022-08-22T10:48:27.196Z,21.50
2022-08-22T10:53:43.018Z,21.67
2022-08-22T10:58:56.460Z,22.05
2022-08-22T11:04:17.588Z,22.27
2022-08-22T11:09:20.801Z,22.44
2022-08-22T11:14:53.089Z,22.65
2022-08-22T11:19:59.679Z,22.84
2022-08-22T11:25:36.188Z,23.05
2022-08-22T11:31:16.455Z,23.59
2022-08-22T11:36:31.063Z,24.10
2022-08-22T11:42:01.712Z,23.89
2022-08-22T11:47:11.807Z,23.44
2022-08-22T11:52:27.052Z,23.43
2022-08-22T11:57:37.330Z,23.57
2022-08-22T12:02:49.861Z,23.79
2022-08-22T12:08:15.190Z,23.90
2022-08-22T12:13:49.632Z,23.82
2022-08-22T12:19:06.876Z,23.73
2022-08-22T12:24:18.977Z,23.78
2022-08-22T12:29:59.683Z,23.87
2022-08-22T12:35:31.213Z,24.12
2022-08-22T12:40:43.586Z,24.15
2022-08-22T12:46:32.467Z,24.02
2022-08-22T12:51:46.910Z,23.93
2022-08-22T12:57:23.409Z,23.90
2022-08-22T13:02:31.795Z,23.89
2022-08-22T13:07:37.349Z,23.97
2022-08-22T13:12:47.131Z,24.03
2022-08-22T13:17:54.967Z,24.19
2022-08-22T13:23:01.820Z,24.34
2022-08-22T13:28:12.809Z,24.16
2022-08-22T13:33:39.185Z,23.87
2022-08-22T13:38:54.459Z,23.80
2022-08-22T13:44:10.099Z,23.94
2022-08-22T13:49:20.513Z,24.24
2022-08-22T13:54:50.073Z,24.46
2022-08-22T14:00:27.444Z,24.38
2022-08-22T14:05:46.668Z,24.24
2022-08-22T14:10:58.092Z,24.09
2022-08-22T14:16:28.112Z,23.93
2022-08-22T14:21:40.140Z,23.87
2022-08-22T14:27:05.724Z,23.81
2022-08-22T14:32:35.051Z,23.72
2022-08-22T14:37:42.910Z,23.62
2022-08-22T14:42:55.953Z,23.47
2022-08-22T14:48:30.197Z,23.42
2022-08-22T14:53:38.190Z,23.42
2022-08-22T14:58:49.618Z,23.37
2022-08-22T15:04:04.092Z,23.24
2022-08-22T15:09:33.420Z,23.03
2022-08-22T15:14:36.425Z,22.91
2022-08-22T15:19:46.803Z,22.89
2022-08-22T15:24:54.954Z,22.80
2022-08-22T15:30:20.605Z,22.78
2022-08-22T15:35:31.361Z,22.75
2022-08-22T15:40:45.709Z,22.61
2022-08-22T15:45:52.696Z,22.46
2022-08-22T15:51:04.998Z,22.40
2022-08-22T15:56:12.464Z,22.41
2022-08-22T16:01:22.519Z,22.39
2022-08-22T16:06:51.350Z,22.37
2022-08-22T16:11:56.814Z,22.25
2022-08-22T16:17:01.866Z,22.10
2022-08-22T16:22:08.617Z,21.99
2022-08-22T16:27:21.741Z,21.92
2022-08-22T16:32:28.389Z,21.82
2022-08-22T16:37:40.309Z,21.75
2022-08-22T16:42:52.228Z,21.66
2022-08-22T16:47:59.407Z,21.54
2022-08-22T16:53:11.244Z,21.50
2022-08-22T16:58:20.190Z,21.42
2022-08-22T17:03:32.418Z,21.29
2022-08-22T17:09:00.004Z,21.14
2022-08-22T17:14:14.079Z,20.96
2022-08-22T17:19:29.151Z,20.81
2022-08-22T17:24:45.215Z,20.63
2022-08-22T17:30:09.676Z,20.47
2022-08-22T17:35:33.156Z,20.29
2022-08-22T17:40:38.329Z,20.16
2022-08-22T17:46:13.785Z,20.06
2022-08-22T17:51:43.247Z,19.96
2022-08-22T17:57:05.078Z,19.88
2022-08-22T18:02:16.500Z,19.80
2022-08-22T18:07:45.377Z,19.73
2022-08-22T18:13:07.976Z,19.67
2022-08-22T18:18:35.423Z,19.61
2022-08-22T18:23:45.088Z,19.56
2022-08-22T18:29:00.686Z,19.49
2022-08-22T18:34:14.343Z,19.41
2022-08-22T18:39:51.117Z,19.35
2022-08-22T18:44:54.761Z,19.27
2022-08-22T18:49:58.079Z,19.22
2022-08-22T18:55:22.588Z,19.18
2022-08-22T19:01:05.063Z,19.11
2022-08-22T19:06:36.091Z,19.02
2022-08-22T19:12:02.036Z,18.93
2022-08-22T19:17:21.843Z,18.85
2022-08-22T19:22:34.656Z,18.75
2022-08-22T19:27:41.605Z,18.65
2022-08-22T19:32:44.571Z,18.59
2022-08-22T19:38:02.823Z,18.53
2022-08-22T19:43:25.203Z,18.48
2022-08-22T19:48:44.732Z,18.44
2022-08-22T19:53:55.030Z,18.37
2022-08-22T19:59:07.088Z,18.33
2022-08-22T20:04:09.988Z,18.31
2022-08-22T20:09:48.426Z,18.31
2022-08-22T20:14:51.827Z,18.29
2022-08-22T20:25:44.226Z,18.30
2022-08-22T20:30:56.026Z,18.36
2022-08-22T20:36:03.644Z,18.45
2022-08-22T20:41:20.983Z,18.50
2022-08-22T20:46:24.467Z,18.53
2022-08-22T20:51:31.646Z,18.56
2022-08-22T20:56:36.289Z,18.57
2022-08-22T21:01:40.317Z,18.59
2022-08-22T21:06:43.315Z,18.55
2022-08-22T21:11:51.647Z,18.51
2022-08-22T21:16:54.586Z,18.43
2022-08-22T21:22:32.376Z,18.39
2022-08-22T21:27:35.687Z,18.41
2022-08-22T21:32:43.412Z,18.42
2022-08-22T21:37:47.191Z,18.42
2022-08-22T21:43:09.800Z,18.38
2022-08-22T21:48:31.542Z,18.31
2022-08-22T21:53:34.548Z,18.24
2022-08-22T21:58:41.209Z,18.16
2022-08-22T22:03:44.867Z,18.13
2022-08-22T22:08:51.040Z,18.17
2022-08-22T22:13:54.151Z,18.22
2022-08-22T22:18:57.467Z,18.23
2022-08-22T22:24:00.476Z,18.15
2022-08-22T22:29:04.389Z,18.06
2022-08-22T22:34:07.507Z,18.02
2022-08-22T22:39:11.266Z,17.95
2022-08-22T22:44:14.175Z,17.92
2022-08-22T22:49:18.813Z,17.89
2022-08-22T22:54:27.323Z,17.84
2022-08-22T22:59:30.527Z,17.78
2022-08-22T23:04:38.461Z,17.70
2022-08-22T23:09:45.200Z,17.60
2022-08-22T23:14:48.680Z,17.52
2022-08-22T23:19:52.690Z,17.48
2022-08-22T23:24:55.707Z,17.45
2022-08-22T23:29:58.715Z,17.40
2022-08-22T23:35:01.726Z,17.37
2022-08-22T23:40:08.178Z,17.36
2022-08-22T23:45:11.514Z,17.38
2022-08-22T23:50:14.419Z,17.44
2022-08-22T23:55:17.729Z,17.49
